Accueil
METAR-TAF:

METAR-TAF

Aéroports :

Aéroport de Liège

Liège, Belgique

latitude: 50-39N, longitude: 005-27E, altitude: 186 m

Observation

Le bulletin a été fait il y a 30 minutes, à 05:50 UTC
Vent 2 kt de est
Température -2°C
Humidité 93%
Pression 1008 hPa
Visibilité: 6000 m

METAR: EBLG 210550Z 08002KT 6000 NSC M02/M03 Q1008 NOSIG

Heure: 07:20 (06:20 UTC)

Prévision

Le bulletin a été fait il y a 1 heure et 19 minutes, à 05:01 UTC
Prévision valable du 21 à 06 UTC au 22 à 12 UTC
Vent 5 kt de est/sud-est
Visibilité: 7000 m
Temporairement
du 21 à 06 UTC au 21 à 11 UTC
Nuages fragmentés à une hauteur de 900 ft

TAF: EBLG 210501Z 2106/2212 12005KT 7000 NSC TEMPO 2106/2111 BKN009

Observations et prévisions météorologiques de plus de 4000 aéroports (messages METAR et TAF).

Les stations disponibles sont représentées par des disques jaunes et rouges sur la carte.

Passer la souris dessus pour voir le nom de la station.

Cliquer dessus pour voir les observations et prévisions météorologiques.

Pour changer de carte: cliquez sur les boutons verts avec une croix noire pour zoomer, sur le bouton vert avec un tiret pour effectuer un zoom arrière, ou sur les flèches vertes pour les cartes adjacentes.


METAR-TAF: